Time;durP1;ratioP1;P1;durP2;ratioP2;P2;SDS_P1;SDS_P2;PMS_P1;PMS_P2;Temp;Humidity;BMP_temperature;BMP_pressure;BME280_temperature;BME280_humidity;BME280_pressure;Samples;Min_cycle;Max_cycle;Signal;HPM_P1;HPM_P2
2020/12/15 00:02:07;;;;;;;2.03;1.23;;;11.20;99.90;;;;;;5076910;28;20048;-86
2020/12/15 00:04:34;;;;;;;2.55;1.30;;;11.20;99.90;;;;;;5076160;28;20080;-87
2020/12/15 00:07:02;;;;;;;2.00;1.30;;;11.10;99.90;;;;;;5075377;28;20041;-86
2020/12/15 00:09:28;;;;;;;2.40;1.10;;;11.20;99.90;;;;;;5076213;28;20049;-86
2020/12/15 00:11:56;;;;;;;3.60;1.40;;;11.20;99.90;;;;;;5075995;28;20044;-86
2020/12/15 00:14:23;;;;;;;2.33;1.33;;;11.20;99.90;;;;;;5076111;28;20070;-86
2020/12/15 00:16:49;;;;;;;1.85;1.33;;;11.10;99.90;;;;;;5074512;28;20070;-86
2020/12/15 00:19:16;;;;;;;2.33;1.40;;;11.10;99.90;;;;;;5056064;28;20045;-86
2020/12/15 00:21:43;;;;;;;3.38;1.38;;;11.10;99.90;;;;;;5056127;28;20106;-86
2020/12/15 00:24:11;;;;;;;2.33;1.13;;;11.20;99.90;;;;;;5056072;28;20482;-86
2020/12/15 00:26:38;;;;;;;2.80;1.50;;;11.00;99.90;;;;;;5057240;28;20060;-86
2020/12/15 00:29:05;;;;;;;1.70;1.20;;;10.90;99.90;;;;;;5055895;28;20045;-87
2020/12/15 00:31:36;;;;;;;2.70;1.20;;;10.90;99.90;;;;;;5055733;28;20052;-87
2020/12/15 00:34:04;;;;;;;2.70;1.50;;;10.90;99.90;;;;;;5056114;28;20486;-86
2020/12/15 00:36:31;;;;;;;2.15;1.48;;;10.90;99.90;;;;;;5055877;28;20068;-86
2020/12/15 00:38:57;;;;;;;2.55;1.33;;;11.00;99.90;;;;;;5056156;28;20053;-87
2020/12/15 00:41:25;;;;;;;3.17;1.40;;;11.00;99.90;;;;;;5055920;28;20072;-86
2020/12/15 00:43:51;;;;;;;2.72;1.30;;;10.80;99.90;;;;;;5073367;28;20052;-86
2020/12/15 00:46:18;;;;;;;2.60;1.70;;;10.90;99.90;;;;;;5075659;28;20040;-87
2020/12/15 00:48:45;;;;;;;2.05;1.15;;;11.00;99.90;;;;;;5058693;28;20505;-86
2020/12/15 00:51:14;;;;;;;2.08;1.23;;;10.90;99.90;;;;;;5055839;28;20041;-86
2020/12/15 00:53:41;;;;;;;2.75;1.33;;;11.00;99.90;;;;;;5055902;28;20060;-86
2020/12/15 00:56:08;;;;;;;2.67;1.52;;;11.00;99.90;;;;;;5055504;28;20110;-86
2020/12/15 00:58:36;;;;;;;2.53;1.20;;;11.00;99.90;;;;;;5055288;28;20063;-86
2020/12/15 01:01:04;;;;;;;3.42;1.75;;;10.90;99.90;;;;;;5055640;28;20053;-86
2020/12/15 01:03:30;;;;;;;2.58;1.40;;;11.00;99.90;;;;;;5055769;28;20056;-87
2020/12/15 01:05:57;;;;;;;2.47;1.75;;;10.90;99.90;;;;;;5055402;28;20451;-86
2020/12/15 01:08:24;;;;;;;2.08;1.20;;;11.00;99.90;;;;;;5055921;28;20045;-86
2020/12/15 01:10:54;;;;;;;2.97;1.42;;;11.00;99.90;;;;;;5055518;28;20076;-86
2020/12/15 01:13:21;;;;;;;2.33;1.40;;;11.10;99.90;;;;;;5055709;28;20045;-86
2020/12/15 01:15:48;;;;;;;1.77;1.30;;;11.00;99.90;;;;;;5055860;28;20049;-86
2020/12/15 01:18:15;;;;;;;2.63;1.50;;;11.10;99.90;;;;;;5075029;28;20132;-86
2020/12/15 01:20:42;;;;;;;2.13;1.60;;;11.00;99.90;;;;;;5075578;28;20447;-86
2020/12/15 01:23:08;;;;;;;3.22;1.40;;;11.00;99.90;;;;;;5075116;28;20095;-86
2020/12/15 01:25:35;;;;;;;2.75;1.50;;;11.00;99.90;;;;;;5074759;28;20118;-86
2020/12/15 01:28:01;;;;;;;2.70;1.30;;;10.90;99.90;;;;;;5057733;28;20037;-86
2020/12/15 01:30:28;;;;;;;2.42;1.50;;;11.00;99.90;;;;;;5055129;28;20053;-86
2020/12/15 01:32:55;;;;;;;2.45;1.35;;;10.90;99.90;;;;;;5054746;28;20056;-86
2020/12/15 01:35:22;;;;;;;2.17;1.52;;;10.90;99.90;;;;;;5054960;28;20041;-86
2020/12/15 01:37:49;;;;;;;3.20;1.73;;;10.90;99.90;;;;;;5055261;28;20049;-86
2020/12/15 01:40:18;;;;;;;2.92;1.50;;;10.70;99.90;;;;;;5054150;28;20049;-86
2020/12/15 01:42:44;;;;;;;2.67;1.73;;;10.70;99.90;;;;;;5063758;28;20052;-87
2020/12/15 01:45:11;;;;;;;2.60;1.77;;;10.60;99.90;;;;;;5074138;28;20045;-86
2020/12/15 01:47:38;;;;;;;2.03;1.50;;;10.50;99.90;;;;;;5060871;28;20095;-86
2020/12/15 01:50:07;;;;;;;2.22;1.60;;;10.50;99.90;;;;;;5054710;28;20110;-87
2020/12/15 01:52:35;;;;;;;3.13;1.95;;;10.50;99.90;;;;;;5054759;28;20053;-86
2020/12/15 01:55:01;;;;;;;3.05;1.70;;;10.30;99.90;;;;;;5054847;28;20061;-86
2020/12/15 01:57:29;;;;;;;2.33;1.50;;;10.30;99.90;;;;;;5054160;28;20132;-87
2020/12/15 01:59:56;;;;;;;2.20;1.50;;;10.30;99.90;;;;;;5055481;28;20417;-87
2020/12/15 02:02:24;;;;;;;2.75;1.90;;;10.30;99.90;;;;;;5054714;28;20154;-87
2020/12/15 02:04:51;;;;;;;3.17;1.67;;;10.20;99.90;;;;;;5055223;28;20072;-87
2020/12/15 02:07:20;;;;;;;3.22;1.67;;;10.10;99.90;;;;;;5053357;28;20071;-87
2020/12/15 02:09:47;;;;;;;2.75;1.70;;;10.10;99.90;;;;;;5054883;28;20099;-87
2020/12/15 02:12:14;;;;;;;3.38;1.75;;;9.90;99.90;;;;;;5054699;28;20520;-87
2020/12/15 02:14:44;;;;;;;3.22;2.20;;;9.70;99.90;;;;;;5056528;28;20061;-85
2020/12/15 02:17:12;;;;;;;;;;;9.70;99.90;;;;;;5060716;28;20054;-84
2020/12/15 02:19:38;;;;;;;2.90;1.92;;;9.50;99.90;;;;;;5059998;28;19999;-84
2020/12/15 02:22:06;;;;;;;3.97;2.00;;;9.40;99.90;;;;;;5060828;28;20052;-84
2020/12/15 02:24:32;;;;;;;3.13;2.03;;;9.40;99.90;;;;;;5060078;28;20049;-84
2020/12/15 02:26:59;;;;;;;3.55;2.20;;;9.40;99.90;;;;;;5059315;28;20076;-84
2020/12/15 02:29:25;;;;;;;4.40;2.25;;;9.30;99.90;;;;;;5058607;28;20056;-84
2020/12/15 02:31:52;;;;;;;3.75;2.33;;;9.30;99.90;;;;;;5058861;28;20401;-84
2020/12/15 02:34:19;;;;;;;3.33;2.25;;;9.40;99.90;;;;;;5058123;28;20417;-84
2020/12/15 02:36:45;;;;;;;3.10;2.35;;;9.40;99.90;;;;;;5060818;28;20045;-84
2020/12/15 02:39:14;;;;;;;3.22;2.58;;;9.40;99.90;;;;;;5063003;28;20505;-84
2020/12/15 02:41:41;;;;;;;3.92;2.08;;;9.30;99.90;;;;;;5063159;28;20085;-84
2020/12/15 02:44:09;;;;;;;4.85;2.40;;;9.30;99.90;;;;;;5082750;28;20119;-84
2020/12/15 02:46:37;;;;;;;3.70;2.35;;;9.20;99.90;;;;;;5067312;28;20049;-84
2020/12/15 02:49:03;;;;;;;5.63;2.80;;;9.20;99.90;;;;;;5063183;28;20246;-84
2020/12/15 02:51:30;;;;;;;3.45;2.45;;;9.10;99.90;;;;;;5063088;28;20045;-84
2020/12/15 02:53:56;;;;;;;3.50;2.33;;;9.10;99.90;;;;;;5062548;28;20076;-83
2020/12/15 02:56:25;;;;;;;4.93;2.67;;;9.20;99.90;;;;;;5063437;28;20068;-83
2020/12/15 02:58:52;;;;;;;3.70;2.67;;;9.20;99.90;;;;;;5063427;28;20092;-83
2020/12/15 03:01:19;;;;;;;4.57;2.80;;;9.20;99.90;;;;;;5062658;28;20206;-84
2020/12/15 03:03:46;;;;;;;3.97;2.90;;;9.20;99.90;;;;;;5062128;28;20048;-84
2020/12/15 03:06:13;;;;;;;4.25;2.70;;;9.30;99.90;;;;;;5061789;28;20049;-84
2020/12/15 03:08:40;;;;;;;4.53;2.80;;;9.30;99.90;;;;;;5062133;28;20068;-84
2020/12/15 03:11:07;;;;;;;8.07;3.60;;;9.30;99.90;;;;;;5062233;28;20465;-84
2020/12/15 03:13:35;;;;;;;6.05;3.15;;;9.20;99.90;;;;;;5062216;28;20064;-84
2020/12/15 03:16:01;;;;;;;4.20;3.28;;;9.30;99.90;;;;;;5061060;28;20044;-84
2020/12/15 03:18:28;;;;;;;6.20;3.20;;;9.10;99.90;;;;;;5060999;28;20056;-84
2020/12/15 03:20:55;;;;;;;5.43;3.72;;;9.20;99.90;;;;;;5060789;28;20535;-83
2020/12/15 03:23:23;;;;;;;5.85;3.78;;;9.30;99.90;;;;;;5061499;28;20060;-83
2020/12/15 03:25:52;;;;;;;4.75;3.78;;;9.30;99.90;;;;;;5069545;28;20146;-83
2020/12/15 03:28:20;;;;;;;7.13;3.75;;;9.40;99.90;;;;;;5082074;28;20463;-84
2020/12/15 03:30:48;;;;;;;4.50;3.42;;;9.40;99.90;;;;;;5082067;28;20131;-84
2020/12/15 03:33:15;;;;;;;6.50;4.00;;;9.40;99.90;;;;;;5082075;28;20562;-84
2020/12/15 03:35:44;;;;;;;5.78;3.60;;;9.30;99.90;;;;;;5073066;28;20540;-84
2020/12/15 03:38:11;;;;;;;5.57;3.72;;;9.30;99.90;;;;;;5061197;28;20140;-84
2020/12/15 03:40:38;;;;;;;7.45;4.28;;;9.30;99.90;;;;;;5060226;28;20475;-84
2020/12/15 03:43:05;;;;;;;5.30;3.85;;;9.40;99.90;;;;;;5060641;28;20091;-84
2020/12/15 03:45:31;;;;;;;7.05;3.70;;;9.20;99.90;;;;;;5060356;28;20041;-84
2020/12/15 03:47:59;;;;;;;4.80;3.63;;;9.10;99.90;;;;;;5060325;28;20155;-84
2020/12/15 03:50:26;;;;;;;5.80;4.05;;;9.10;99.90;;;;;;5061619;28;20482;-84
2020/12/15 03:52:53;;;;;;;6.35;4.32;;;9.10;99.90;;;;;;5062820;28;20110;-84
2020/12/15 03:55:22;;;;;;;5.82;4.38;;;9.10;99.90;;;;;;5061954;28;20405;-83
2020/12/15 03:57:50;;;;;;;6.78;4.28;;;9.00;99.90;;;;;;5059793;28;20073;-83
2020/12/15 04:00:16;;;;;;;6.93;4.68;;;9.00;99.90;;;;;;5059250;28;20052;-83
2020/12/15 04:02:43;;;;;;;6.10;4.68;;;9.20;99.90;;;;;;5057203;28;20049;-83
2020/12/15 04:05:11;;;;;;;8.32;4.50;;;9.00;99.90;;;;;;5072408;28;20048;-84
2020/12/15 04:07:38;;;;;;;6.43;4.80;;;9.10;99.90;;;;;;5077898;28;20087;-83
2020/12/15 04:10:07;;;;;;;6.85;4.75;;;9.10;99.90;;;;;;5077705;28;20455;-83
2020/12/15 04:12:33;;;;;;;5.85;4.60;;;9.10;99.90;;;;;;5077993;28;20155;-83
2020/12/15 04:15:00;;;;;;;5.97;4.80;;;9.20;99.90;;;;;;5062697;28;20118;-83
2020/12/15 04:17:26;;;;;;;6.22;4.45;;;9.20;99.90;;;;;;5057660;28;20492;-83
2020/12/15 04:19:53;;;;;;;7.38;5.22;;;9.20;99.90;;;;;;5057169;28;20076;-83
2020/12/15 04:22:20;;;;;;;8.55;5.43;;;9.20;99.90;;;;;;5057151;28;20103;-83
2020/12/15 04:24:47;;;;;;;6.65;4.78;;;9.20;99.90;;;;;;5068239;28;20504;-83
2020/12/15 04:27:13;;;;;;;6.53;4.75;;;9.20;99.90;;;;;;5077401;28;20133;-83
2020/12/15 04:29:43;;;;;;;6.78;4.40;;;9.10;99.90;;;;;;5076851;28;20048;-83
2020/12/15 04:32:09;;;;;;;6.38;4.55;;;9.10;99.90;;;;;;5077235;28;20064;-84
2020/12/15 04:34:38;;;;;;;7.03;5.22;;;9.10;99.90;;;;;;5076641;28;20529;-84
2020/12/15 04:37:05;;;;;;;6.90;4.60;;;9.10;99.90;;;;;;5077155;28;20146;-84
2020/12/15 04:39:32;;;;;;;6.28;4.75;;;9.10;99.90;;;;;;5076790;28;20048;-84
2020/12/15 04:42:02;;;;;;;5.35;4.35;;;9.20;99.90;;;;;;5076809;28;20489;-84
2020/12/15 04:44:31;;;;;;;5.57;4.10;;;9.20;99.90;;;;;;5070482;28;20041;-84
2020/12/15 04:47:10;;;;;;;6.03;4.38;;;9.20;99.90;;;;;;5056517;28;20083;-84
2020/12/15 04:49:46;;;;;;;8.00;4.30;;;9.20;99.90;;;;;;5057230;28;20052;-84
2020/12/15 04:52:20;;;;;;;5.82;4.38;;;9.20;99.90;;;;;;5057336;28;20068;-84
2020/12/15 04:54:50;;;;;;;5.95;3.95;;;9.20;99.90;;;;;;5057849;28;20099;-84
2020/12/15 04:57:20;;;;;;;4.70;4.18;;;9.20;99.90;;;;;;5056633;28;20056;-84
2020/12/15 04:59:49;;;;;;;5.28;3.97;;;9.20;99.90;;;;;;5055707;28;20060;-84
2020/12/15 05:02:20;;;;;;;5.75;4.10;;;9.30;99.90;;;;;;5056650;28;20073;-84
2020/12/15 05:04:49;;;;;;;5.82;4.05;;;9.30;99.90;;;;;;5056797;28;20053;-84
2020/12/15 05:07:16;;;;;;;6.23;4.37;;;9.20;99.90;;;;;;5056916;28;20401;-84
2020/12/15 05:09:46;;;;;;;5.10;4.35;;;9.30;99.90;;;;;;5057952;28;20053;-84
2020/12/15 05:12:13;;;;;;;8.10;5.53;;;9.40;99.90;;;;;;5057238;28;20095;-83
2020/12/15 05:14:40;;;;;;;6.63;4.22;;;9.40;99.90;;;;;;5055651;28;20049;-84
2020/12/15 05:17:06;;;;;;;9.45;5.03;;;9.40;99.90;;;;;;5056222;28;20470;-84
2020/12/15 05:19:42;;;;;;;5.82;4.15;;;9.40;99.90;;;;;;5056221;28;20383;-83
2020/12/15 05:22:09;;;;;;;6.00;4.60;;;9.40;99.90;;;;;;5056821;28;20524;-83
2020/12/15 05:24:35;;;;;;;6.72;5.35;;;9.40;99.90;;;;;;5056145;28;20083;-83
2020/12/15 05:27:02;;;;;;;7.47;5.40;;;9.50;99.90;;;;;;5056818;28;20080;-84
2020/12/15 05:29:29;;;;;;;6.75;5.53;;;9.50;99.90;;;;;;5056313;28;20128;-84
2020/12/15 05:31:59;;;;;;;6.68;5.28;;;9.50;99.90;;;;;;5056409;28;20099;-84
2020/12/15 05:34:27;;;;;;;7.18;5.43;;;9.50;99.90;;;;;;5065396;28;20044;-83
2020/12/15 05:36:55;;;;;;;7.22;4.88;;;9.50;99.90;;;;;;5076015;28;20603;-83
2020/12/15 05:39:25;;;;;;;7.63;5.43;;;9.60;99.90;;;;;;5075971;28;20053;-83
2020/12/15 05:42:01;;;;;;;8.00;5.78;;;9.60;99.90;;;;;;5074808;28;20044;-83
2020/12/15 05:44:29;;;;;;;9.38;5.13;;;9.60;99.90;;;;;;5065649;28;20077;-83
2020/12/15 05:47:03;;;;;;;7.55;5.65;;;9.60;99.90;;;;;;5054833;28;20077;-84
2020/12/15 05:49:32;;;;;;;6.20;5.25;;;9.60;99.90;;;;;;5055135;28;20087;-83
2020/12/15 05:51:59;;;;;;;8.60;5.45;;;9.60;99.90;;;;;;5055075;28;20064;-83
2020/12/15 05:54:26;;;;;;;8.35;5.78;;;9.60;99.90;;;;;;5054315;28;20049;-83
2020/12/15 05:57:04;;;;;;;6.82;5.50;;;9.60;99.90;;;;;;5049926;28;20053;-83
2020/12/15 05:59:32;;;;;;;7.20;5.68;;;9.70;99.90;;;;;;5055403;28;20048;-84
2020/12/15 06:02:07;;;;;;;6.65;5.28;;;9.70;99.90;;;;;;5057769;28;20060;-84
2020/12/15 06:04:36;;;;;;;8.65;5.45;;;9.60;99.90;;;;;;5069752;28;20524;-84
2020/12/15 06:07:04;;;;;;;6.25;5.18;;;9.50;99.90;;;;;;5060233;28;20056;-83
2020/12/15 06:09:31;;;;;;;7.32;5.30;;;9.50;99.90;;;;;;5064452;28;20041;-83
2020/12/15 06:11:58;;;;;;;6.72;5.30;;;9.50;99.90;;;;;;5060452;28;20466;-83
2020/12/15 06:14:26;;;;;;;6.32;4.75;;;9.60;99.90;;;;;;5060669;28;20084;-83
2020/12/15 06:16:56;;;;;;;6.40;4.70;;;9.60;99.90;;;;;;5061916;28;20108;-83
2020/12/15 06:19:24;;;;;;;6.63;5.28;;;9.50;99.90;;;;;;5062411;28;20064;-83
2020/12/15 06:21:53;;;;;;;7.57;5.47;;;9.60;99.90;;;;;;5062055;28;20187;-83
2020/12/15 06:24:27;;;;;;;6.53;5.00;;;9.70;99.90;;;;;;5061849;28;20056;-83
2020/12/15 06:26:58;;;;;;;7.90;5.47;;;9.60;99.90;;;;;;5062197;28;20959;-83
2020/12/15 06:29:29;;;;;;;6.90;5.28;;;9.60;99.90;;;;;;5078101;28;20049;-83
2020/12/15 06:31:57;;;;;;;6.82;5.25;;;9.60;99.90;;;;;;5081593;28;20139;-83
2020/12/15 06:34:31;;;;;;;6.82;4.45;;;9.60;99.90;;;;;;5082776;28;20086;-83
2020/12/15 06:37:00;;;;;;;6.22;4.60;;;9.50;99.90;;;;;;5077453;28;20460;-83
2020/12/15 06:39:27;;;;;;;7.05;4.82;;;9.60;99.90;;;;;;5082301;28;20052;-83
2020/12/15 06:42:01;;;;;;;5.53;4.65;;;9.60;99.90;;;;;;5081516;28;20397;-83
2020/12/15 06:44:30;;;;;;;7.82;5.15;;;9.60;99.90;;;;;;5082927;28;20056;-83
2020/12/15 06:46:58;;;;;;;7.97;5.03;;;9.60;99.90;;;;;;5073111;28;20071;-83
2020/12/15 06:49:32;;;;;;;5.80;4.60;;;9.70;99.90;;;;;;5071368;28;20049;-83
2020/12/15 06:52:00;;;;;;;6.18;4.95;;;9.70;99.90;;;;;;5068499;28;20610;-83
2020/12/15 06:54:28;;;;;;;5.38;4.38;;;9.80;99.90;;;;;;5082280;28;20493;-83
2020/12/15 06:57:03;;;;;;;4.93;4.13;;;9.70;99.90;;;;;;5073615;28;20085;-81
2020/12/15 06:59:37;;;;;;;5.75;4.50;;;9.80;99.90;;;;;;5071501;28;20048;-83
2020/12/15 07:02:07;;;;;;;6.57;4.55;;;9.70;99.90;;;;;;5081716;28;20044;-84
2020/12/15 07:04:39;;;;;;;6.60;5.38;;;9.80;99.90;;;;;;5081930;28;20059;-84
2020/12/15 07:07:06;;;;;;;6.95;4.70;;;9.70;99.90;;;;;;5061414;28;20083;-83
2020/12/15 07:09:32;;;;;;;5.10;4.60;;;9.70;99.90;;;;;;5063185;28;20441;-84
2020/12/15 07:11:59;;;;;;;7.43;4.57;;;9.90;99.90;;;;;;5063828;28;20401;-84
2020/12/15 07:14:26;;;;;;;7.65;4.97;;;9.90;99.90;;;;;;5076562;28;20051;-84
2020/12/15 07:16:55;;;;;;;5.88;4.97;;;9.90;99.90;;;;;;5063416;28;20508;-80
2020/12/15 07:19:23;;;;;;;6.47;4.70;;;10.10;99.90;;;;;;5060624;28;20087;-80
2020/12/15 07:21:52;;;;;;;7.15;5.43;;;9.90;99.90;;;;;;5057967;28;20048;-80
2020/12/15 07:24:19;;;;;;;5.45;4.45;;;9.90;99.90;;;;;;5057510;28;20049;-80
2020/12/15 07:26:46;;;;;;;6.50;5.15;;;10.00;99.90;;;;;;5074604;28;20465;-81
2020/12/15 07:29:12;;;;;;;7.82;5.05;;;10.10;99.90;;;;;;5077264;28;20056;-80
2020/12/15 07:31:39;;;;;;;5.22;4.60;;;10.20;99.90;;;;;;5077247;28;20106;-80
2020/12/15 07:34:08;;;;;;;6.15;5.20;;;10.20;99.90;;;;;;5068887;28;20049;-80
2020/12/15 07:36:37;;;;;;;6.60;4.68;;;10.30;99.90;;;;;;5058377;28;20065;-83
2020/12/15 07:39:05;;;;;;;6.15;5.00;;;10.30;99.90;;;;;;5057486;28;20079;-81
2020/12/15 07:41:36;;;;;;;5.15;3.97;;;10.30;99.90;;;;;;5058032;28;20049;-81
2020/12/15 07:44:04;;;;;;;5.60;4.60;;;10.30;99.90;;;;;;5071093;28;20048;-81
2020/12/15 07:46:31;;;;;;;5.82;4.63;;;10.20;99.90;;;;;;5058289;28;20131;-79
2020/12/15 07:49:00;;;;;;;5.63;4.57;;;10.30;99.90;;;;;;5062407;28;20074;-79
2020/12/15 07:51:27;;;;;;;7.60;5.93;;;10.40;99.90;;;;;;5073470;28;20072;-82
2020/12/15 07:53:57;;;;;;;7.60;5.63;;;10.50;99.90;;;;;;5060335;28;20087;-82
2020/12/15 07:56:24;;;;;;;6.40;4.82;;;10.60;99.90;;;;;;5077944;28;20044;-81
2020/12/15 07:58:52;;;;;;;7.05;5.55;;;10.60;99.90;;;;;;5079169;28;20052;-84
2020/12/15 08:01:24;;;;;;;6.38;5.78;;;10.70;99.90;;;;;;5078336;28;20037;-83
2020/12/15 08:04:02;;;;;;;6.35;4.25;;;10.70;99.90;;;;;;5079108;28;20083;-83
2020/12/15 08:06:31;;;;;;;5.30;4.80;;;10.40;99.90;;;;;;5079741;28;20467;-82
2020/12/15 08:08:59;;;;;;;6.55;4.72;;;10.40;99.90;;;;;;5078319;28;20068;-82
2020/12/15 08:11:28;;;;;;;7.60;4.80;;;10.30;99.90;;;;;;5079162;28;20045;-82
2020/12/15 08:13:54;;;;;;;7.27;5.10;;;10.20;99.90;;;;;;5080328;28;20501;-82
2020/12/15 08:16:22;;;;;;;6.10;4.65;;;10.40;99.90;;;;;;5079585;28;20141;-81
2020/12/15 08:18:49;;;;;;;5.75;4.20;;;10.30;99.90;;;;;;5075554;28;20075;-82
2020/12/15 08:21:17;;;;;;;5.03;3.88;;;10.40;99.90;;;;;;5076964;28;20091;-81
2020/12/15 08:23:48;;;;;;;4.20;3.50;;;10.40;99.90;;;;;;5077123;28;20127;-81
2020/12/15 08:26:17;;;;;;;4.13;3.08;;;10.40;99.90;;;;;;5073137;28;20143;-82
2020/12/15 08:28:44;;;;;;;;;;;10.50;99.90;;;;;;5073617;28;20101;-83
2020/12/15 08:31:11;;;;;;;4.43;2.92;;;10.40;99.90;;;;;;5076685;28;19927;-83
2020/12/15 08:33:38;;;;;;;3.30;2.85;;;10.40;99.90;;;;;;5066767;28;20124;-83
2020/12/15 08:36:05;;;;;;;3.00;2.65;;;10.20;99.90;;;;;;5080747;28;20048;-82
2020/12/15 08:38:34;;;;;;;5.13;2.85;;;10.20;99.90;;;;;;5080335;28;20110;-83
2020/12/15 08:41:05;;;;;;;3.42;2.50;;;10.10;99.90;;;;;;5077847;28;20052;-86
2020/12/15 08:43:33;;;;;;;3.20;2.40;;;10.00;99.90;;;;;;5073229;28;20066;-86
2020/12/15 08:46:02;;;;;;;3.53;2.65;;;9.90;99.90;;;;;;5077735;28;20048;-82
2020/12/15 08:48:29;;;;;;;3.45;2.42;;;10.00;99.90;;;;;;5080538;28;20052;-83
2020/12/15 08:50:55;;;;;;;2.58;2.20;;;10.10;99.90;;;;;;5079684;28;20060;-83
2020/12/15 08:53:22;;;;;;;3.65;2.63;;;10.00;99.90;;;;;;5080056;28;20056;-84
2020/12/15 08:55:50;;;;;;;3.00;2.17;;;10.10;99.90;;;;;;5079096;28;20060;-84
2020/12/15 08:58:18;;;;;;;4.35;2.42;;;10.10;99.90;;;;;;5080970;28;20493;-84
2020/12/15 09:00:47;;;;;;;3.33;2.58;;;10.20;99.90;;;;;;5079091;28;20052;-84
2020/12/15 09:03:15;;;;;;;4.07;1.90;;;10.20;99.90;;;;;;5071309;28;20045;-82
2020/12/15 09:05:50;;;;;;;3.55;2.60;;;10.10;99.90;;;;;;5074839;28;20056;-81
2020/12/15 09:08:17;;;;;;;3.20;2.00;;;10.20;99.90;;;;;;5073881;28;20076;-83
2020/12/15 09:10:44;;;;;;;2.65;2.20;;;10.20;99.90;;;;;;5075593;28;20048;-83
2020/12/15 09:13:10;;;;;;;3.00;2.40;;;10.30;99.90;;;;;;5075289;28;20125;-83
2020/12/15 09:15:48;;;;;;;3.50;2.20;;;10.30;99.90;;;;;;5059605;28;20103;-84
2020/12/15 09:18:16;;;;;;;3.45;2.53;;;10.20;99.90;;;;;;5073699;28;20087;-84
2020/12/15 09:20:43;;;;;;;3.22;1.90;;;10.20;99.90;;;;;;5078883;28;20059;-83
2020/12/15 09:23:12;;;;;;;2.80;2.08;;;10.20;99.90;;;;;;5072961;28;20545;-82
2020/12/15 09:25:38;;;;;;;2.57;1.80;;;10.30;99.90;;;;;;5058070;28;20045;-82
2020/12/15 09:28:05;;;;;;;2.60;1.90;;;10.20;99.90;;;;;;5072288;28;20505;-82
2020/12/15 09:30:31;;;;;;;2.28;1.90;;;10.30;99.90;;;;;;5078518;28;20052;-82
2020/12/15 09:33:03;;;;;;;2.65;2.03;;;10.30;99.90;;;;;;5077558;28;20090;-82
2020/12/15 09:35:30;;;;;;;2.25;1.80;;;10.40;99.90;;;;;;5079476;28;20052;-82
2020/12/15 09:37:56;;;;;;;2.47;1.88;;;10.30;99.90;;;;;;5078483;28;20048;-82
2020/12/15 09:40:23;;;;;;;2.67;1.95;;;10.20;99.90;;;;;;5078409;28;20052;-82
2020/12/15 09:42:51;;;;;;;3.35;1.83;;;10.20;99.90;;;;;;5074581;28;20052;-82
2020/12/15 09:45:18;;;;;;;2.00;1.60;;;10.20;99.90;;;;;;5066052;28;20048;-82
2020/12/15 09:47:45;;;;;;;3.97;1.60;;;10.20;99.90;;;;;;5077739;28;20052;-83
2020/12/15 09:50:13;;;;;;;2.55;1.83;;;10.30;99.90;;;;;;5076296;28;20075;-85
2020/12/15 09:52:40;;;;;;;2.95;1.58;;;10.50;99.90;;;;;;5075999;28;20051;-80
2020/12/15 09:55:06;;;;;;;2.55;1.45;;;10.50;99.90;;;;;;5077368;28;20044;-82
2020/12/15 09:57:33;;;;;;;2.17;1.60;;;10.40;99.90;;;;;;5077038;28;20056;-82
2020/12/15 09:59:59;;;;;;;2.60;1.48;;;10.50;99.90;;;;;;5077057;28;20048;-83
2020/12/15 10:02:26;;;;;;;1.90;1.45;;;10.60;99.90;;;;;;5070605;28;20067;-80
2020/12/15 10:04:53;;;;;;;2.38;1.60;;;10.60;99.90;;;;;;5058435;28;20057;-82
2020/12/15 10:07:20;;;;;;;1.88;1.40;;;10.60;99.90;;;;;;5076137;28;20099;-80
2020/12/15 10:09:47;;;;;;;2.30;1.42;;;10.70;99.90;;;;;;5066910;28;20056;-82
2020/12/15 10:12:14;;;;;;;2.13;1.48;;;10.70;99.90;;;;;;5067087;28;20071;-80
2020/12/15 10:14:43;;;;;;;2.50;1.30;;;10.80;99.90;;;;;;5077448;28;20076;-82
2020/12/15 10:17:09;;;;;;;2.63;1.70;;;10.70;99.90;;;;;;5077085;28;20107;-82
2020/12/15 10:19:36;;;;;;;2.08;1.25;;;10.90;99.90;;;;;;5076780;28;20475;-82
2020/12/15 10:22:03;;;;;;;2.20;1.60;;;10.80;99.90;;;;;;5076877;28;20045;-82
2020/12/15 10:24:33;;;;;;;1.73;1.30;;;10.90;99.90;;;;;;5075816;28;20070;-82
2020/12/15 10:26:59;;;;;;;1.70;1.40;;;10.90;99.90;;;;;;5074664;28;20113;-83
2020/12/15 10:29:29;;;;;;;2.10;1.30;;;10.90;99.90;;;;;;5070117;28;20547;-82
2020/12/15 10:31:56;;;;;;;1.80;1.30;;;10.80;99.90;;;;;;5072172;28;20037;-83
2020/12/15 10:34:22;;;;;;;2.13;1.60;;;10.80;99.90;;;;;;5075055;28;20478;-83
2020/12/15 10:36:49;;;;;;;2.72;1.40;;;10.90;99.90;;;;;;5076334;28;20064;-82
2020/12/15 10:39:16;;;;;;;3.47;1.50;;;10.90;99.90;;;;;;5075672;28;20100;-82
2020/12/15 10:41:43;;;;;;;2.30;1.67;;;11.00;99.90;;;;;;5073243;28;20049;-82
2020/12/15 10:44:14;;;;;;;2.10;1.50;;;10.90;99.90;;;;;;5074761;28;20070;-83
2020/12/15 10:46:41;;;;;;;2.50;1.90;;;10.90;99.90;;;;;;5074198;28;20453;-84
2020/12/15 10:49:08;;;;;;;2.30;1.70;;;10.90;99.90;;;;;;5076942;28;20492;-83
2020/12/15 10:51:35;;;;;;;1.85;1.40;;;11.00;99.90;;;;;;5074603;28;20071;-82
2020/12/15 10:54:01;;;;;;;3.00;1.70;;;10.90;99.90;;;;;;5074234;28;20044;-82
2020/12/15 10:56:28;;;;;;;4.32;2.88;;;11.00;99.90;;;;;;5074671;28;20178;-82
2020/12/15 10:58:56;;;;;;;2.22;1.70;;;11.00;99.90;;;;;;5077762;28;20104;-83
2020/12/15 11:01:23;;;;;;;2.63;1.80;;;11.10;99.90;;;;;;5076804;28;20040;-83
2020/12/15 11:03:50;;;;;;;2.30;1.90;;;11.00;99.90;;;;;;5069812;28;20386;-83
2020/12/15 11:06:16;;;;;;;2.55;1.80;;;11.00;99.90;;;;;;5077353;28;20052;-83
2020/12/15 11:08:43;;;;;;;2.55;1.80;;;11.00;99.90;;;;;;5075104;28;20052;-83
2020/12/15 11:11:12;;;;;;;2.22;1.83;;;11.10;99.90;;;;;;5081694;28;20044;-82
2020/12/15 11:13:38;;;;;;;2.50;2.00;;;11.00;99.90;;;;;;5079228;28;20068;-86
2020/12/15 11:16:06;;;;;;;2.35;1.85;;;10.90;99.90;;;;;;5078897;28;20088;-84
2020/12/15 11:18:32;;;;;;;2.40;1.92;;;11.00;99.90;;;;;;5080283;28;20044;-84
2020/12/15 11:21:05;;;;;;;2.55;1.98;;;11.00;99.90;;;;;;5075605;28;20090;-87
2020/12/15 11:23:35;;;;;;;2.53;2.03;;;11.00;99.90;;;;;;5062634;28;20044;-88
2020/12/15 11:26:01;;;;;;;2.25;1.85;;;11.10;99.90;;;;;;5078979;28;20056;-87
2020/12/15 11:28:28;;;;;;;4.68;2.20;;;11.10;99.90;;;;;;5075534;28;20037;-87
2020/12/15 11:30:55;;;;;;;3.33;2.53;;;11.00;99.90;;;;;;5058432;28;20061;-88
2020/12/15 11:33:22;;;;;;;3.58;2.67;;;11.00;99.90;;;;;;5057765;28;20044;-88
2020/12/15 11:35:50;;;;;;;2.95;2.60;;;10.90;99.90;;;;;;5077115;28;20136;-88
2020/12/15 11:38:18;;;;;;;3.35;2.50;;;10.90;99.90;;;;;;5079731;28;20451;-88
2020/12/15 11:40:46;;;;;;;3.70;2.90;;;10.90;99.90;;;;;;5079854;28;20056;-88
2020/12/15 11:43:13;;;;;;;3.72;2.78;;;10.90;99.90;;;;;;5060593;28;20053;-87
2020/12/15 11:45:43;;;;;;;3.42;3.13;;;11.00;99.90;;;;;;5076822;28;20056;-87
2020/12/15 11:48:09;;;;;;;;;;;11.10;99.90;;;;;;5080180;28;20056;-89
2020/12/15 11:50:37;;;;;;;3.90;3.30;;;10.90;99.90;;;;;;5075107;28;19947;-84
2020/12/15 11:53:04;;;;;;;4.28;3.65;;;10.80;99.90;;;;;;5080032;28;20071;-85
2020/12/15 11:55:30;;;;;;;4.82;4.15;;;10.90;99.90;;;;;;5077887;28;20045;-84
2020/12/15 11:57:57;;;;;;;4.47;3.67;;;11.00;99.90;;;;;;5080249;28;20098;-85
2020/12/15 12:00:24;;;;;;;5.32;4.22;;;11.00;99.90;;;;;;5071386;28;20068;-84
2020/12/15 12:02:51;;;;;;;5.80;4.85;;;11.00;99.90;;;;;;5078234;28;20082;-87
2020/12/15 12:05:19;;;;;;;4.82;3.95;;;11.10;99.90;;;;;;5075315;28;20123;-86
2020/12/15 12:07:47;;;;;;;5.97;4.22;;;11.00;99.90;;;;;;5074354;28;20400;-87
2020/12/15 12:10:14;;;;;;;5.53;4.20;;;10.90;99.90;;;;;;5079771;28;20122;-86
2020/12/15 12:12:42;;;;;;;5.55;4.50;;;11.00;99.90;;;;;;5077981;28;20055;-86
2020/12/15 12:15:11;;;;;;;6.53;4.47;;;10.80;99.90;;;;;;5063524;28;20461;-85
2020/12/15 12:17:40;;;;;;;6.05;4.45;;;10.80;99.90;;;;;;5071625;28;20049;-85
2020/12/15 12:20:07;;;;;;;5.78;4.82;;;10.80;99.90;;;;;;5064957;28;20045;-86
2020/12/15 12:22:33;;;;;;;7.25;4.97;;;10.80;99.90;;;;;;5074813;28;20623;-86
2020/12/15 12:25:01;;;;;;;6.35;4.38;;;10.70;99.90;;;;;;5068293;28;20132;-86
2020/12/15 12:27:30;;;;;;;6.05;4.95;;;10.70;99.90;;;;;;5077258;28;20474;-87
2020/12/15 12:29:57;;;;;;;5.90;5.15;;;10.60;99.90;;;;;;5077220;28;20525;-87
2020/12/15 12:32:23;;;;;;;6.35;5.28;;;10.50;99.90;;;;;;5077126;28;20164;-85
2020/12/15 12:34:50;;;;;;;7.25;4.78;;;10.60;99.90;;;;;;5069519;28;20055;-85
2020/12/15 12:37:17;;;;;;;7.22;5.10;;;10.50;99.90;;;;;;5077558;28;20054;-83
2020/12/15 12:39:44;;;;;;;6.05;5.25;;;10.50;99.90;;;;;;5077185;28;20048;-85
2020/12/15 12:42:12;;;;;;;5.47;4.57;;;10.50;99.90;;;;;;5077083;28;20083;-84
2020/12/15 12:44:39;;;;;;;6.40;4.78;;;10.40;99.90;;;;;;5071598;28;20053;-84
2020/12/15 12:47:06;;;;;;;6.50;5.30;;;10.40;99.90;;;;;;5058404;28;20065;-83
2020/12/15 12:49:32;;;;;;;6.82;5.18;;;10.50;99.90;;;;;;5064483;28;20068;-92
2020/12/15 12:51:59;;;;;;;5.50;4.68;;;10.40;99.90;;;;;;5077043;28;20132;-85
2020/12/15 12:54:26;;;;;;;9.48;4.88;;;10.30;99.90;;;;;;5067989;28;20108;-85
2020/12/15 12:56:53;;;;;;;8.52;5.63;;;10.40;99.90;;;;;;5075854;28;20131;-89